sensor_id;sensor_type;location;lat;lon;timestamp;pressure;altitude;pressure_sealevel;temperature;humidity
58467;BME280;44255;49.244;7.726;2023-03-04T04:32:30;98933.41;;;-3.29;46.85
58467;BME280;44255;49.244;7.726;2023-03-04T04:34:55;98944.03;;;-3.74;48.02
58467;BME280;44255;49.244;7.726;2023-03-04T04:37:20;98948.50;;;-4.20;49.40
58467;BME280;44255;49.244;7.726;2023-03-04T04:39:45;98944.09;;;-4.02;49.28
58467;BME280;44255;49.244;7.726;2023-03-04T04:42:10;98943.25;;;-4.23;48.55
58467;BME280;44255;49.244;7.726;2023-03-04T04:44:36;98944.97;;;-3.89;48.75
58467;BME280;44255;49.244;7.726;2023-03-04T04:47:02;98943.13;;;-4.90;50.73
58467;BME280;44255;49.244;7.726;2023-03-04T04:49:28;98949.34;;;-4.11;49.02
58467;BME280;44255;49.244;7.726;2023-03-04T04:51:53;98946.72;;;-4.04;48.59
58467;BME280;44255;49.244;7.726;2023-03-04T04:54:18;98947.63;;;-4.19;48.52
58467;BME280;44255;49.244;7.726;2023-03-04T04:56:43;98949.34;;;-4.27;48.67
58467;BME280;44255;49.244;7.726;2023-03-04T04:59:08;98948.47;;;-4.15;48.22
58467;BME280;44255;49.244;7.726;2023-03-04T05:01:34;98947.63;;;-4.06;48.43
58467;BME280;44255;49.244;7.726;2023-03-04T05:03:59;98951.13;;;-4.38;49.13
58467;BME280;44255;49.244;7.726;2023-03-04T05:06:24;98951.06;;;-4.68;49.33
58467;BME280;44255;49.244;7.726;2023-03-04T05:08:49;98954.56;;;-4.69;50.32
58467;BME280;44255;49.244;7.726;2023-03-04T05:11:15;98954.53;;;-4.80;50.27
58467;BME280;44255;49.244;7.726;2023-03-04T05:13:40;98955.44;;;-4.70;50.23
58467;BME280;44255;49.244;7.726;2023-03-04T05:16:06;98959.00;;;-4.35;48.61
58467;BME280;44255;49.244;7.726;2023-03-04T05:18:31;98950.25;;;-4.14;48.12
58467;BME280;44255;49.244;7.726;2023-03-04T05:20:57;98955.50;;;-3.72;46.94
58467;BME280;44255;49.244;7.726;2023-03-04T05:23:23;98944.97;;;-4.19;48.50
58467;BME280;44255;49.244;7.726;2023-03-04T05:25:48;98948.47;;;-3.95;48.02
58467;BME280;44255;49.244;7.726;2023-03-04T05:28:14;98950.19;;;-4.71;49.03
58467;BME280;44255;49.244;7.726;2023-03-04T05:30:39;98954.63;;;-4.33;48.41
58467;BME280;44255;49.244;7.726;2023-03-04T05:33:05;98951.06;;;-4.80;49.72
58467;BME280;44255;49.244;7.726;2023-03-04T05:35:32;98956.31;;;-4.71;49.70
58467;BME280;44255;49.244;7.726;2023-03-04T05:37:58;98955.41;;;-4.90;49.92
58467;BME280;44255;49.244;7.726;2023-03-04T05:40:23;98958.09;;;-4.61;49.43
58467;BME280;44255;49.244;7.726;2023-03-04T05:42:49;98958.09;;;-4.68;49.30
58467;BME280;44255;49.244;7.726;2023-03-04T05:45:14;98958.00;;;-4.95;49.04
58467;BME280;44255;49.244;7.726;2023-03-04T05:47:40;98952.69;;;-5.15;50.24
58467;BME280;44255;49.244;7.726;2023-03-04T05:50:05;98954.56;;;-4.78;48.89
58467;BME280;44255;49.244;7.726;2023-03-04T05:52:30;98963.41;;;-4.19;47.51
58467;BME280;44255;49.244;7.726;2023-03-04T05:54:55;98961.66;;;-4.31;47.51
58467;BME280;44255;49.244;7.726;2023-03-04T05:57:21;98967.78;;;-4.24;46.45
58467;BME280;44255;49.244;7.726;2023-03-04T05:59:46;98968.66;;;-4.16;46.82
58467;BME280;44255;49.244;7.726;2023-03-04T06:02:11;98958.91;;;-4.82;49.02
58467;BME280;44255;49.244;7.726;2023-03-04T06:04:36;98977.13;;;-5.28;50.39
58467;BME280;44255;49.244;7.726;2023-03-04T06:07:02;98971.88;;;-5.32;50.52
58467;BME280;44255;49.244;7.726;2023-03-04T06:09:27;98972.97;;;-4.69;48.09
58467;BME280;44255;49.244;7.726;2023-03-04T06:11:52;98972.06;;;-4.88;48.90
58467;BME280;44255;49.244;7.726;2023-03-04T06:14:17;98972.19;;;-4.38;47.07
58467;BME280;44255;49.244;7.726;2023-03-04T06:16:43;98966.81;;;-4.76;48.34
58467;BME280;44255;49.244;7.726;2023-03-04T06:19:08;98977.38;;;-4.63;48.32
58467;BME280;44255;49.244;7.726;2023-03-04T06:21:33;98975.69;;;-4.36;47.77
58467;BME280;44255;49.244;7.726;2023-03-04T06:23:58;98981.78;;;-4.54;47.99
58467;BME280;44255;49.244;7.726;2023-03-04T06:26:23;98979.97;;;-4.80;48.40
58467;BME280;44255;49.244;7.726;2023-03-04T06:28:48;98989.72;;;-4.34;48.07
58467;BME280;44255;49.244;7.726;2023-03-04T06:31:14;98988.78;;;-4.58;48.11
58467;BME280;44255;49.244;7.726;2023-03-04T06:33:39;98984.34;;;-4.81;48.49
58467;BME280;44255;49.244;7.726;2023-03-04T06:36:04;98990.28;;;-5.32;50.20
58467;BME280;44255;49.244;7.726;2023-03-04T06:38:29;98985.25;;;-4.68;49.13
58467;BME280;44255;49.244;7.726;2023-03-04T06:40:55;98985.13;;;-5.08;49.45
58467;BME280;44255;49.244;7.726;2023-03-04T06:43:20;98990.50;;;-4.68;48.82
58467;BME280;44255;49.244;7.726;2023-03-04T06:45:45;98994.00;;;-4.80;48.94
58467;BME280;44255;49.244;7.726;2023-03-04T06:48:11;98996.56;;;-5.02;49.95
58467;BME280;44255;49.244;7.726;2023-03-04T06:50:38;98998.50;;;-4.35;48.03
58467;BME280;44255;49.244;7.726;2023-03-04T06:53:03;99001.97;;;-4.52;48.23
58467;BME280;44255;49.244;7.726;2023-03-04T06:55:28;99004.59;;;-4.42;48.33
58467;BME280;44255;49.244;7.726;2023-03-04T06:57:53;99009.91;;;-4.16;47.68
58467;BME280;44255;49.244;7.726;2023-03-04T07:00:18;99015.19;;;-4.02;47.29
58467;BME280;44255;49.244;7.726;2023-03-04T07:02:44;99019.50;;;-4.55;47.91
58467;BME280;44255;49.244;7.726;2023-03-04T07:05:09;99015.97;;;-4.57;49.40
58467;BME280;44255;49.244;7.726;2023-03-04T07:07:35;99013.41;;;-4.17;48.14
58467;BME280;44255;49.244;7.726;2023-03-04T07:10:00;99015.16;;;-4.28;48.05
58467;BME280;44255;49.244;7.726;2023-03-04T07:12:25;99013.41;;;-4.16;48.30
58467;BME280;44255;49.244;7.726;2023-03-04T07:14:50;99026.56;;;-4.26;49.22
58467;BME280;44255;49.244;7.726;2023-03-04T07:17:16;99029.22;;;-4.20;49.15
58467;BME280;44255;49.244;7.726;2023-03-04T07:19:41;99027.50;;;-3.70;48.64
58467;BME280;44255;49.244;7.726;2023-03-04T07:22:06;99028.31;;;-3.40;47.80
58467;BME280;44255;49.244;7.726;2023-03-04T07:24:31;99030.97;;;-3.74;48.70
58467;BME280;44255;49.244;7.726;2023-03-04T07:26:57;99035.34;;;-3.40;47.64
58467;BME280;44255;49.244;7.726;2023-03-04T07:29:22;99034.50;;;-3.46;48.43
58467;BME280;44255;49.244;7.726;2023-03-04T07:31:47;99038.03;;;-3.62;48.54
58467;BME280;44255;49.244;7.726;2023-03-04T07:34:12;99031.84;;;-3.49;48.56
58467;BME280;44255;49.244;7.726;2023-03-04T07:36:38;99035.34;;;-3.28;48.94
58467;BME280;44255;49.244;7.726;2023-03-04T07:39:03;99039.69;;;-3.18;48.25
58467;BME280;44255;49.244;7.726;2023-03-04T07:41:29;99037.03;;;-3.18;49.11
58467;BME280;44255;49.244;7.726;2023-03-04T07:43:55;99046.78;;;-3.96;50.95
58467;BME280;44255;49.244;7.726;2023-03-04T07:46:21;99042.38;;;-3.36;49.96
58467;BME280;44255;49.244;7.726;2023-03-04T07:48:46;99037.13;;;-3.74;51.72
58467;BME280;44255;49.244;7.726;2023-03-04T07:51:12;99037.13;;;-3.58;52.19
58467;BME280;44255;49.244;7.726;2023-03-04T07:53:38;99030.84;;;-2.92;50.06
58467;BME280;44255;49.244;7.726;2023-03-04T07:56:04;99041.34;;;-2.90;50.57
58467;BME280;44255;49.244;7.726;2023-03-04T07:58:29;99038.59;;;-2.57;49.62
58467;BME280;44255;49.244;7.726;2023-03-04T08:00:55;99040.44;;;-2.81;50.67
58467;BME280;44255;49.244;7.726;2023-03-04T08:03:20;99050.03;;;-2.59;50.70
58467;BME280;44255;49.244;7.726;2023-03-04T08:05:45;99038.69;;;-2.76;51.26
58467;BME280;44255;49.244;7.726;2023-03-04T08:08:10;99036.13;;;-2.99;52.15
58467;BME280;44255;49.244;7.726;2023-03-04T08:10:35;99040.38;;;-2.64;51.29
58467;BME280;44255;49.244;7.726;2023-03-04T08:13:03;99036.66;;;-2.26;51.35
58467;BME280;44255;49.244;7.726;2023-03-04T08:15:29;99035.47;;;-1.78;50.64
58467;BME280;44255;49.244;7.726;2023-03-04T08:17:56;99040.28;;;-2.46;52.60
58467;BME280;44255;49.244;7.726;2023-03-04T08:20:21;99044.75;;;-2.59;52.84
58467;BME280;44255;49.244;7.726;2023-03-04T08:22:47;99032.38;;;-2.46;52.63
58467;BME280;44255;49.244;7.726;2023-03-04T08:25:12;99041.75;;;-1.95;52.59
58467;BME280;44255;49.244;7.726;2023-03-04T08:27:37;99035.34;;;-1.64;51.17
58467;BME280;44255;49.244;7.726;2023-03-04T08:30:03;99038.09;;;-1.78;51.74
58467;BME280;44255;49.244;7.726;2023-03-04T08:32:28;99043.63;;;-2.12;53.36
58467;BME280;44255;49.244;7.726;2023-03-04T08:34:53;99039.75;;;-1.68;52.92
58467;BME280;44255;49.244;7.726;2023-03-04T08:37:20;99037.28;;;-0.94;51.98
58467;BME280;44255;49.244;7.726;2023-03-04T08:39:45;99033.78;;;-0.96;51.08
58467;BME280;44255;49.244;7.726;2023-03-04T08:42:10;99031.69;;;-1.52;53.47
58467;BME280;44255;49.244;7.726;2023-03-04T08:44:35;99028.63;;;-1.09;52.85
58467;BME280;44255;49.244;7.726;2023-03-04T08:47:00;99033.13;;;-1.17;52.58
58467;BME280;44255;49.244;7.726;2023-03-04T08:49:26;99027.63;;;-0.28;51.14
58467;BME280;44255;49.244;7.726;2023-03-04T08:51:51;99027.47;;;-0.19;51.60
58467;BME280;44255;49.244;7.726;2023-03-04T08:54:16;99024.06;;;0.30;50.61
58467;BME280;44255;49.244;7.726;2023-03-04T08:56:41;99029.06;;;0.50;49.29
58467;BME280;44255;49.244;7.726;2023-03-04T08:59:06;99025.84;;;0.28;49.43
58467;BME280;44255;49.244;7.726;2023-03-04T09:01:32;99018.84;;;0.77;47.91
58467;BME280;44255;49.244;7.726;2023-03-04T09:03:57;99010.53;;;0.95;47.06
58467;BME280;44255;49.244;7.726;2023-03-04T09:06:22;99014.00;;;0.99;47.37
58467;BME280;44255;49.244;7.726;2023-03-04T09:08:47;99014.25;;;1.31;46.67
58467;BME280;44255;49.244;7.726;2023-03-04T09:11:12;99011.72;;;1.24;47.05
58467;BME280;44255;49.244;7.726;2023-03-04T09:13:38;99004.22;;;1.45;45.83
58467;BME280;44255;49.244;7.726;2023-03-04T09:16:07;99015.66;;;0.59;47.34
58467;BME280;44255;49.244;7.726;2023-03-04T09:18:32;99017.06;;;1.23;46.23
58467;BME280;44255;49.244;7.726;2023-03-04T09:20:57;99006.63;;;1.56;45.44
58467;BME280;44255;49.244;7.726;2023-03-04T09:23:23;99011.66;;;1.68;44.72
58467;BME280;44255;49.244;7.726;2023-03-04T09:25:48;99003.38;;;1.81;45.21
58467;BME280;44255;49.244;7.726;2023-03-04T09:28:14;99015.00;;;1.37;45.10
58467;BME280;44255;49.244;7.726;2023-03-04T09:30:39;99016.34;;;1.56;44.89
58467;BME280;44255;49.244;7.726;2023-03-04T09:33:05;99009.53;;;1.45;45.28
58467;BME280;44255;49.244;7.726;2023-03-04T09:35:30;99022.88;;;1.42;45.54
58467;BME280;44255;49.244;7.726;2023-03-04T09:37:55;99022.44;;;1.20;45.50
58467;BME280;44255;49.244;7.726;2023-03-04T09:40:22;99026.94;;;1.16;45.60
58467;BME280;44255;49.244;7.726;2023-03-04T09:42:52;99025.63;;;1.78;44.79
58467;BME280;44255;49.244;7.726;2023-03-04T09:45:19;99033.44;;;1.85;45.02
58467;BME280;44255;49.244;7.726;2023-03-04T09:47:45;99024.66;;;2.19;43.77
58467;BME280;44255;49.244;7.726;2023-03-04T09:50:12;99033.56;;;2.16;43.65
58467;BME280;44255;49.244;7.726;2023-03-04T10:02:45;99039.97;;;2.09;43.41
58467;BME280;44255;49.244;7.726;2023-03-04T10:05:18;99039.66;;;1.43;44.83
58467;BME280;44255;49.244;7.726;2023-03-04T10:07:45;99039.94;;;1.71;44.37
58467;BME280;44255;49.244;7.726;2023-03-04T10:10:12;99043.78;;;1.97;43.91
58467;BME280;44255;49.244;7.726;2023-03-04T10:12:40;99041.25;;;2.29;42.89
58467;BME280;44255;49.244;7.726;2023-03-04T10:17:42;99039.94;;;2.10;43.64
58467;BME280;44255;49.244;7.726;2023-03-04T10:20:18;99041.09;;;1.99;43.49
58467;BME280;44255;49.244;7.726;2023-03-04T10:22:50;99037.19;;;2.14;42.97
58467;BME280;44255;49.244;7.726;2023-03-04T10:25:21;99031.97;;;2.10;44.04
58467;BME280;44255;49.244;7.726;2023-03-04T10:27:48;99040.22;;;1.98;43.30
58467;BME280;44255;49.244;7.726;2023-03-04T10:32:58;99041.31;;;2.27;43.49
58467;BME280;44255;49.244;7.726;2023-03-04T10:35:25;99039.03;;;2.12;43.72
58467;BME280;44255;49.244;7.726;2023-03-04T10:37:51;99041.34;;;1.88;43.34
58467;BME280;44255;49.244;7.726;2023-03-04T10:40:21;99033.72;;;2.12;43.98
58467;BME280;44255;49.244;7.726;2023-03-04T10:42:49;99038.88;;;2.18;44.23
58467;BME280;44255;49.244;7.726;2023-03-04T10:45:19;99035.22;;;1.84;44.24
58467;BME280;44255;49.244;7.726;2023-03-04T10:47:50;99039.56;;;1.88;44.29
58467;BME280;44255;49.244;7.726;2023-03-04T10:50:20;99027.44;;;1.76;43.70
58467;BME280;44255;49.244;7.726;2023-03-04T10:52:46;99019.34;;;2.19;43.63
58467;BME280;44255;49.244;7.726;2023-03-04T10:55:16;99016.28;;;2.36;43.37
58467;BME280;44255;49.244;7.726;2023-03-04T10:57:42;99021.81;;;2.63;42.26
58467;BME280;44255;49.244;7.726;2023-03-04T11:02:46;99011.28;;;2.58;42.75
58467;BME280;44255;49.244;7.726;2023-03-04T11:05:22;99010.28;;;2.26;43.21
58467;BME280;44255;49.244;7.726;2023-03-04T11:07:48;99016.78;;;2.14;43.47
58467;BME280;44255;49.244;7.726;2023-03-04T11:10:16;99009.00;;;2.06;42.93
58467;BME280;44255;49.244;7.726;2023-03-04T11:12:47;99010.34;;;2.61;42.26
58467;BME280;44255;49.244;7.726;2023-03-04T11:15:16;99012.69;;;2.72;42.27
58467;BME280;44255;49.244;7.726;2023-03-04T11:17:43;99008.41;;;2.66;42.48
58467;BME280;44255;49.244;7.726;2023-03-04T11:20:12;99005.41;;;2.45;43.18
58467;BME280;44255;49.244;7.726;2023-03-04T11:22:40;99005.47;;;2.77;42.51
58467;BME280;44255;49.244;7.726;2023-03-04T11:25:11;99002.31;;;2.62;42.79
58467;BME280;44255;49.244;7.726;2023-03-04T11:27:44;98997.06;;;2.59;42.47
58467;BME280;44255;49.244;7.726;2023-03-04T11:32:49;98992.72;;;2.88;41.86
58467;BME280;44255;49.244;7.726;2023-03-04T11:35:37;98984.09;;;3.12;41.48
58467;BME280;44255;49.244;7.726;2023-03-04T11:40:53;98987.19;;;2.96;41.87
58467;BME280;44255;49.244;7.726;2023-03-04T11:45:51;98975.66;;;2.95;41.94
58467;BME280;44255;49.244;7.726;2023-03-04T11:56:17;98964.78;;;3.03;41.45
58467;BME280;44255;49.244;7.726;2023-03-04T12:01:17;98967.50;;;3.02;41.83
58467;BME280;44255;49.244;7.726;2023-03-04T12:03:52;98960.69;;;2.91;41.86
58467;BME280;44255;49.244;7.726;2023-03-04T12:14:24;98950.13;;;2.88;42.09
58467;BME280;44255;49.244;7.726;2023-03-04T12:21:49;98941.88;;;3.28;41.53
58467;BME280;44255;49.244;7.726;2023-03-04T12:31:41;98935.56;;;3.02;42.18
58467;BME280;44255;49.244;7.726;2023-03-04T12:44:16;98924.16;;;3.27;41.40
58467;BME280;44255;49.244;7.726;2023-03-04T12:46:56;98925.59;;;3.38;41.46
58467;BME280;44255;49.244;7.726;2023-03-04T12:53:29;98912.28;;;4.72;38.45
58467;BME280;44255;49.244;7.726;2023-03-04T12:55:58;98907.25;;;4.37;38.86
58467;BME280;44255;49.244;7.726;2023-03-04T12:58:29;98913.25;;;4.44;38.81
58467;BME280;44255;49.244;7.726;2023-03-04T13:01:04;98908.47;;;4.28;38.97
58467;BME280;44255;49.244;7.726;2023-03-04T13:03:53;98914.88;;;4.22;39.49
58467;BME280;44255;49.244;7.726;2023-03-04T13:06:38;98911.19;;;4.01;40.03
58467;BME280;44255;49.244;7.726;2023-03-04T13:12:15;98907.28;;;2.98;41.67
58467;BME280;44255;49.244;7.726;2023-03-04T13:15:13;98905.34;;;3.03;41.77
58467;BME280;44255;49.244;7.726;2023-03-04T13:20:41;98889.88;;;3.73;40.36
58467;BME280;44255;49.244;7.726;2023-03-04T13:25:45;98896.75;;;3.51;41.23
58467;BME280;44255;49.244;7.726;2023-03-04T13:28:18;98898.31;;;3.30;41.07
58467;BME280;44255;49.244;7.726;2023-03-04T13:36:05;98887.31;;;2.16;43.34
58467;BME280;44255;49.244;7.726;2023-03-04T13:38:35;98895.13;;;1.89;44.59
58467;BME280;44255;49.244;7.726;2023-03-04T13:43:46;98886.28;;;2.57;43.25
58467;BME280;44255;49.244;7.726;2023-03-04T14:01:33;98884.22;;;2.66;43.34
58467;BME280;44255;49.244;7.726;2023-03-04T14:04:00;98887.09;;;2.59;43.49
58467;BME280;44255;49.244;7.726;2023-03-04T14:06:29;98877.88;;;3.31;42.34
58467;BME280;44255;49.244;7.726;2023-03-04T14:08:56;98881.84;;;2.87;42.39
58467;BME280;44255;49.244;7.726;2023-03-04T14:13:54;98878.94;;;2.95;41.78
58467;BME280;44255;49.244;7.726;2023-03-04T14:16:25;98871.31;;;3.13;42.09
58467;BME280;44255;49.244;7.726;2023-03-04T14:19:03;98871.94;;;3.21;42.35
58467;BME280;44255;49.244;7.726;2023-03-04T14:21:29;98866.19;;;3.06;41.96
58467;BME280;44255;49.244;7.726;2023-03-04T14:24:09;98869.94;;;2.99;42.66
58467;BME280;44255;49.244;7.726;2023-03-04T14:26:35;98859.63;;;3.45;41.58
58467;BME280;44255;49.244;7.726;2023-03-04T14:29:01;98864.22;;;3.42;41.43
58467;BME280;44255;49.244;7.726;2023-03-04T14:31:29;98858.19;;;3.63;41.24
58467;BME280;44255;49.244;7.726;2023-03-04T14:33:57;98871.59;;;3.60;41.38
58467;BME280;44255;49.244;7.726;2023-03-04T14:36:29;98865.47;;;3.58;41.03
58467;BME280;44255;49.244;7.726;2023-03-04T14:38:58;98860.75;;;3.38;42.17
58467;BME280;44255;49.244;7.726;2023-03-04T14:41:33;98856.38;;;3.64;40.99
58467;BME280;44255;49.244;7.726;2023-03-04T14:46:31;98850.97;;;3.67;41.33
58467;BME280;44255;49.244;7.726;2023-03-04T14:48:58;98863.72;;;3.29;42.08
58467;BME280;44255;49.244;7.726;2023-03-04T14:51:45;98853.66;;;3.38;41.30
58467;BME280;44255;49.244;7.726;2023-03-04T14:56:56;98848.03;;;3.19;42.27
58467;BME280;44255;49.244;7.726;2023-03-04T14:59:29;98840.13;;;3.45;41.15
58467;BME280;44255;49.244;7.726;2023-03-04T15:02:15;98843.56;;;2.91;42.56
58467;BME280;44255;49.244;7.726;2023-03-04T15:04:42;98845.63;;;2.81;43.13
58467;BME280;44255;49.244;7.726;2023-03-04T15:07:14;98834.72;;;3.19;41.87
58467;BME280;44255;49.244;7.726;2023-03-04T15:09:40;98833.75;;;2.63;42.57
58467;BME280;44255;49.244;7.726;2023-03-04T15:12:07;98835.75;;;2.85;42.59
58467;BME280;44255;49.244;7.726;2023-03-04T15:17:22;98837.34;;;2.62;43.37
58467;BME280;44255;49.244;7.726;2023-03-04T15:22:23;98829.78;;;2.47;43.49
58467;BME280;44255;49.244;7.726;2023-03-04T15:24:48;98841.66;;;2.33;44.12
58467;BME280;44255;49.244;7.726;2023-03-04T15:27:14;98833.25;;;3.09;42.43
58467;BME280;44255;49.244;7.726;2023-03-04T15:29:42;98826.97;;;3.12;42.04
58467;BME280;44255;49.244;7.726;2023-03-04T15:32:08;98827.69;;;2.88;42.06
58467;BME280;44255;49.244;7.726;2023-03-04T15:34:34;98831.13;;;3.20;42.44
58467;BME280;44255;49.244;7.726;2023-03-04T15:37:00;98825.91;;;3.44;41.48
58467;BME280;44255;49.244;7.726;2023-03-04T15:39:25;98829.00;;;3.59;41.61
58467;BME280;44255;49.244;7.726;2023-03-04T15:41:51;98811.00;;;3.65;41.12
58467;BME280;44255;49.244;7.726;2023-03-04T15:44:17;98818.63;;;2.65;42.45
58467;BME280;44255;49.244;7.726;2023-03-04T15:46:42;98807.34;;;2.86;42.19
58467;BME280;44255;49.244;7.726;2023-03-04T15:49:07;98803.72;;;2.58;43.10
58467;BME280;44255;49.244;7.726;2023-03-04T15:51:33;98812.09;;;3.33;41.81
58467;BME280;44255;49.244;7.726;2023-03-04T15:53:58;98808.25;;;3.42;41.73
58467;BME280;44255;49.244;7.726;2023-03-04T15:56:29;98812.69;;;3.41;41.66
58467;BME280;44255;49.244;7.726;2023-03-04T15:59:02;98809.84;;;3.47;41.25
58467;BME280;44255;49.244;7.726;2023-03-04T16:01:28;98809.41;;;2.76;41.92
58467;BME280;44255;49.244;7.726;2023-03-04T16:03:53;98815.28;;;2.87;41.85
58467;BME280;44255;49.244;7.726;2023-03-04T16:06:19;98812.63;;;2.87;41.92
58467;BME280;44255;49.244;7.726;2023-03-04T16:08:48;98809.38;;;2.77;42.77
58467;BME280;44255;49.244;7.726;2023-03-04T16:11:17;98809.50;;;2.73;42.85
58467;BME280;44255;49.244;7.726;2023-03-04T16:13:44;98809.50;;;2.73;42.81
58467;BME280;44255;49.244;7.726;2023-03-04T16:16:10;98812.50;;;2.62;42.73
58467;BME280;44255;49.244;7.726;2023-03-04T16:18:36;98819.03;;;1.85;44.09
58467;BME280;44255;49.244;7.726;2023-03-04T16:21:02;98815.69;;;2.43;43.54
58467;BME280;44255;49.244;7.726;2023-03-04T16:23:27;98817.03;;;2.27;43.08
58467;BME280;44255;49.244;7.726;2023-03-04T16:25:54;98809.56;;;2.41;43.77
58467;BME280;44255;49.244;7.726;2023-03-04T16:28:20;98812.22;;;2.41;43.14
58467;BME280;44255;49.244;7.726;2023-03-04T16:30:46;98813.59;;;2.55;43.34
58467;BME280;44255;49.244;7.726;2023-03-04T16:33:11;98817.00;;;2.60;42.65
58467;BME280;44255;49.244;7.726;2023-03-04T16:35:39;98812.38;;;2.66;43.16
58467;BME280;44255;49.244;7.726;2023-03-04T16:38:09;98820.44;;;2.63;42.63
58467;BME280;44255;49.244;7.726;2023-03-04T16:40:38;98817.38;;;2.77;42.72
58467;BME280;44255;49.244;7.726;2023-03-04T16:43:03;98815.06;;;2.65;42.86
58467;BME280;44255;49.244;7.726;2023-03-04T16:45:28;98818.78;;;2.89;42.33
58467;BME280;44255;49.244;7.726;2023-03-04T16:47:56;98817.22;;;2.52;43.06
58467;BME280;44255;49.244;7.726;2023-03-04T16:50:24;98818.84;;;2.58;43.17
58467;BME280;44255;49.244;7.726;2023-03-04T16:52:52;98823.03;;;2.33;44.20
58467;BME280;44255;49.244;7.726;2023-03-04T16:55:20;98824.19;;;2.23;44.01
58467;BME280;44255;49.244;7.726;2023-03-04T16:57:46;98816.41;;;2.50;43.55
58467;BME280;44255;49.244;7.726;2023-03-04T17:00:13;98819.78;;;2.85;43.08
58467;BME280;44255;49.244;7.726;2023-03-04T17:02:39;98813.69;;;2.81;42.59
58467;BME280;44255;49.244;7.726;2023-03-04T17:05:05;98814.41;;;2.87;42.60
58467;BME280;44255;49.244;7.726;2023-03-04T17:07:30;98814.34;;;2.90;42.56
58467;BME280;44255;49.244;7.726;2023-03-04T17:09:56;98816.66;;;3.29;42.30
58467;BME280;44255;49.244;7.726;2023-03-04T17:12:21;98814.56;;;2.82;43.08
58467;BME280;44255;49.244;7.726;2023-03-04T17:14:46;98820.47;;;2.62;43.36
58467;BME280;44255;49.244;7.726;2023-03-04T17:17:12;98817.91;;;2.59;43.69
58467;BME280;44255;49.244;7.726;2023-03-04T17:19:37;98826.19;;;2.78;43.75
58467;BME280;44255;49.244;7.726;2023-03-04T17:22:02;98823.19;;;2.90;43.42
58467;BME280;44255;49.244;7.726;2023-03-04T17:24:28;98819.91;;;2.82;43.73
58467;BME280;44255;49.244;7.726;2023-03-04T17:26:53;98821.97;;;2.41;44.48
58467;BME280;44255;49.244;7.726;2023-03-04T17:29:19;98826.25;;;2.46;44.66
58467;BME280;44255;49.244;7.726;2023-03-04T17:31:45;98824.47;;;2.47;44.11
58467;BME280;44255;49.244;7.726;2023-03-04T17:34:10;98826.84;;;2.24;45.11
58467;BME280;44255;49.244;7.726;2023-03-04T17:36:35;98822.03;;;2.69;44.35
58467;BME280;44255;49.244;7.726;2023-03-04T17:39:02;98827.06;;;2.80;43.94
58467;BME280;44255;49.244;7.726;2023-03-04T17:41:28;98826.31;;;2.75;44.25
58467;BME280;44255;49.244;7.726;2023-03-04T17:43:53;98813.44;;;2.89;44.04
58467;BME280;44255;49.244;7.726;2023-03-04T17:46:21;98822.69;;;2.77;43.73
58467;BME280;44255;49.244;7.726;2023-03-04T17:48:47;98818.13;;;2.51;44.41
58467;BME280;44255;49.244;7.726;2023-03-04T17:51:13;98825.31;;;2.49;44.61
58467;BME280;44255;49.244;7.726;2023-03-04T17:53:39;98831.56;;;2.46;44.53
58467;BME280;44255;49.244;7.726;2023-03-04T17:56:05;98822.50;;;2.53;44.85
58467;BME280;44255;49.244;7.726;2023-03-04T17:58:33;98826.19;;;2.78;44.56
58467;BME280;44255;49.244;7.726;2023-03-04T18:01:04;98828.63;;;2.86;45.06
58467;BME280;44255;49.244;7.726;2023-03-04T18:03:30;98821.13;;;2.38;45.99
58467;BME280;44255;49.244;7.726;2023-03-04T18:05:55;98824.31;;;2.51;45.05
58467;BME280;44255;49.244;7.726;2023-03-04T18:08:20;98826.84;;;2.56;45.28
58467;BME280;44255;49.244;7.726;2023-03-04T18:10:45;98827.13;;;2.77;44.84
58467;BME280;44255;49.244;7.726;2023-03-04T18:13:11;98820.38;;;2.33;45.60
58467;BME280;44255;49.244;7.726;2023-03-04T18:15:36;98820.25;;;2.70;44.51
58467;BME280;44255;49.244;7.726;2023-03-04T18:18:01;98822.44;;;2.23;45.61
58467;BME280;44255;49.244;7.726;2023-03-04T18:20:27;98818.53;;;2.37;45.47
58467;BME280;44255;49.244;7.726;2023-03-04T18:22:52;98816.09;;;2.28;46.27
58467;BME280;44255;49.244;7.726;2023-03-04T18:25:17;98819.63;;;2.61;45.25
58467;BME280;44255;49.244;7.726;2023-03-04T18:27:43;98825.94;;;2.24;45.05
58467;BME280;44255;49.244;7.726;2023-03-04T18:30:10;98817.59;;;2.38;45.53
58467;BME280;44255;49.244;7.726;2023-03-04T18:32:36;98816.41;;;2.50;45.09
58467;BME280;44255;49.244;7.726;2023-03-04T18:35:02;98814.00;;;2.71;45.09
58467;BME280;44255;49.244;7.726;2023-03-04T18:37:27;98807.69;;;2.45;45.12
58467;BME280;44255;49.244;7.726;2023-03-04T18:39:53;98813.06;;;2.08;46.31
58467;BME280;44255;49.244;7.726;2023-03-04T18:42:18;98808.16;;;2.26;45.55
58467;BME280;44255;49.244;7.726;2023-03-04T18:44:43;98808.78;;;2.67;45.09
58467;BME280;44255;49.244;7.726;2023-03-04T18:47:09;98807.78;;;2.72;44.58
58467;BME280;44255;49.244;7.726;2023-03-04T18:49:37;98801.88;;;2.60;45.52
58467;BME280;44255;49.244;7.726;2023-03-04T18:52:03;98802.13;;;2.52;45.18
58467;BME280;44255;49.244;7.726;2023-03-04T18:54:28;98802.88;;;2.58;45.21
58467;BME280;44255;49.244;7.726;2023-03-04T18:56:56;98808.41;;;2.50;45.68
58467;BME280;44255;49.244;7.726;2023-03-04T18:59:26;98808.31;;;2.53;45.11
58467;BME280;44255;49.244;7.726;2023-03-04T19:01:57;98803.91;;;2.52;45.32
58467;BME280;44255;49.244;7.726;2023-03-04T19:04:25;98810.25;;;2.48;45.74
58467;BME280;44255;49.244;7.726;2023-03-04T19:06:52;98807.22;;;2.29;45.25
58467;BME280;44255;49.244;7.726;2023-03-04T19:09:17;98802.84;;;2.26;45.90
58467;BME280;44255;49.244;7.726;2023-03-04T19:11:43;98807.00;;;2.36;46.02
58467;BME280;44255;49.244;7.726;2023-03-04T19:14:09;98806.16;;;2.34;45.60
58467;BME280;44255;49.244;7.726;2023-03-04T19:16:35;98812.50;;;1.97;46.17
58467;BME280;44255;49.244;7.726;2023-03-04T19:19:01;98810.97;;;2.21;46.41
58467;BME280;44255;49.244;7.726;2023-03-04T19:21:27;98815.06;;;2.33;45.69
58467;BME280;44255;49.244;7.726;2023-03-04T19:23:52;98817.13;;;2.55;45.21
58467;BME280;44255;49.244;7.726;2023-03-04T19:26:17;98825.19;;;2.20;46.06
58467;BME280;44255;49.244;7.726;2023-03-04T19:28:43;98811.59;;;2.30;45.72
58467;BME280;44255;49.244;7.726;2023-03-04T19:31:09;98816.03;;;2.62;44.71
58467;BME280;44255;49.244;7.726;2023-03-04T19:33:36;98811.19;;;2.14;45.79